Time;durP1;ratioP1;P1;durP2;ratioP2;P2;SDS_P1;SDS_P2;PMS_P1;PMS_P2;Temp;Humidity;BMP_temperature;BMP_pressure;BME280_temperature;BME280_humidity;BME280_pressure;Samples;Min_cycle;Max_cycle;Signal;HPM_P1;HPM_P2
2021/10/09 00:02:15;;;;;;;20.90;8.77;;;;;;;9.91;57.37;101464.22;4991018;28;20058;-64
2021/10/09 00:04:41;;;;;;;21.98;7.97;;;;;;;9.85;57.56;101466.44;4989951;28;20038;-64
2021/10/09 00:07:07;;;;;;;21.33;8.25;;;;;;;9.77;57.58;101447.34;4991290;28;20117;-64
2021/10/09 00:09:33;;;;;;;20.63;8.07;;;;;;;9.76;57.25;101454.53;4990808;28;20037;-64
2021/10/09 00:11:58;;;;;;;25.88;9.00;;;;;;;9.82;57.15;101469.31;4990655;28;20037;-63
2021/10/09 00:14:24;;;;;;;21.67;8.25;;;;;;;9.80;57.47;101458.69;4990716;28;20089;-64
2021/10/09 00:16:49;;;;;;;21.73;8.32;;;;;;;9.80;57.36;101464.06;4990489;28;20033;-64
2021/10/09 00:19:15;;;;;;;21.15;8.50;;;;;;;9.74;57.28;101463.63;4990837;28;20042;-62
2021/10/09 00:21:45;;;;;;;27.08;8.90;;;;;;;9.78;56.93;101466.00;4991133;28;20393;-62
2021/10/09 00:24:16;;;;;;;16.85;8.20;;;;;;;9.73;56.85;101470.78;4990822;28;20054;-62
2021/10/09 00:26:42;;;;;;;22.85;9.40;;;;;;;9.71;56.99;101469.19;4988705;28;20093;-63
2021/10/09 00:29:08;;;;;;;16.58;8.55;;;;;;;9.67;57.27;101463.16;4997775;28;20026;-62
2021/10/09 00:31:34;;;;;;;19.60;8.88;;;;;;;9.66;57.03;101472.16;5010191;28;20029;-62
2021/10/09 00:33:59;;;;;;;23.70;9.20;;;;;;;9.63;57.07;101460.78;5009907;28;20045;-62
2021/10/09 00:36:25;;;;;;;23.27;8.38;;;;;;;9.56;56.97;101460.34;5009901;28;20025;-62
2021/10/09 00:38:51;;;;;;;18.80;8.43;;;;;;;9.53;57.09;101471.25;5008344;28;20033;-62
2021/10/09 00:41:16;;;;;;;18.85;10.43;;;;;;;9.49;57.16;101469.72;5009873;28;20017;-62
2021/10/09 00:43:42;;;;;;;20.00;9.00;;;;;;;9.51;56.99;101464.28;5009922;28;20061;-61
2021/10/09 00:46:07;;;;;;;28.27;8.68;;;;;;;9.44;57.20;101471.84;5009798;28;20673;-62
2021/10/09 00:48:34;;;;;;;19.50;8.95;;;;;;;9.41;57.00;101468.50;5009747;28;20080;-62
2021/10/09 00:51:00;;;;;;;20.27;9.05;;;;;;;9.37;56.93;101472.31;5009419;28;20034;-62
2021/10/09 00:53:28;;;;;;;19.52;9.77;;;;;;;9.25;57.64;101456.09;5009711;28;20038;-62
2021/10/09 00:55:55;;;;;;;16.73;9.40;;;;;;;9.29;57.67;101464.81;5009442;28;20056;-61
2021/10/09 00:58:22;;;;;;;24.38;9.10;;;;;;;9.23;57.73;101470.56;4999461;28;20168;-61
2021/10/09 01:00:48;;;;;;;23.60;8.82;;;;;;;9.19;57.10;101469.00;4989938;28;20045;-62
2021/10/09 01:03:14;;;;;;;20.95;9.13;;;;;;;9.18;57.30;101469.97;4990071;28;20034;-62
2021/10/09 01:05:40;;;;;;;20.33;8.25;;;;;;;9.15;57.67;101472.84;4990094;28;20037;-62
2021/10/09 01:08:06;;;;;;;19.23;8.93;;;;;;;9.10;57.51;101473.13;4990034;28;20611;-61
2021/10/09 01:10:31;;;;;;;21.08;9.10;;;;;;;9.03;57.84;101460.28;4990051;28;20034;-62
2021/10/09 01:12:58;;;;;;;19.17;8.15;;;;;;;9.07;58.17;101473.31;4990049;28;20029;-61
2021/10/09 01:15:29;;;;;;;18.58;8.15;;;;;;;9.05;58.38;101474.38;4989896;28;20040;-61
2021/10/09 01:17:55;;;;;;;30.83;9.50;;;;;;;9.01;57.84;101471.06;4989605;28;20034;-61
2021/10/09 01:20:21;;;;;;;15.65;8.63;;;;;;;8.96;57.85;101472.28;4989647;28;20469;-62
2021/10/09 01:22:47;;;;;;;17.02;8.40;;;;;;;8.93;58.14;101469.81;4989665;28;20033;-62
2021/10/09 01:25:14;;;;;;;17.65;8.60;;;;;;;8.90;57.86;101478.88;4989766;28;20030;-62
2021/10/09 01:27:40;;;;;;;26.77;10.02;;;;;;;8.84;57.73;101467.72;4989740;28;20500;-64
2021/10/09 01:30:08;;;;;;;17.25;9.60;;;;;;;8.79;57.96;101472.50;5000890;28;20476;-64
2021/10/09 01:32:33;;;;;;;16.38;8.75;;;;;;;8.74;58.24;101466.59;5009083;28;20030;-62
2021/10/09 01:35:03;;;;;;;21.27;9.23;;;;;;;8.71;57.41;101478.31;5008833;28;20041;-61
2021/10/09 01:37:41;;;;;;;17.50;10.10;;;;;;;8.65;58.07;101475.16;5008184;28;20200;-63
2021/10/09 01:40:07;;;;;;;20.95;9.32;;;;;;;8.60;57.92;101477.25;5009086;28;20538;-62
2021/10/09 01:42:34;;;;;;;27.10;9.55;;;;;;;8.55;57.68;101468.66;5009111;28;20080;-63
2021/10/09 01:45:00;;;;;;;22.88;9.50;;;;;;;8.49;58.02;101469.91;5008917;28;20022;-63
2021/10/09 01:47:25;;;;;;;18.40;9.05;;;;;;;8.45;57.73;101475.53;5010207;28;20019;-61
2021/10/09 01:49:50;;;;;;;21.60;8.75;;;;;;;8.42;58.14;101463.19;5012002;28;20021;-62
2021/10/09 01:52:16;;;;;;;20.90;8.75;;;;;;;8.39;57.93;101474.06;4992649;28;20034;-63
2021/10/09 01:54:41;;;;;;;23.67;10.15;;;;;;;8.34;58.21;101470.81;4989392;28;20082;-61
2021/10/09 01:57:07;;;;;;;22.75;8.85;;;;;;;8.29;58.14;101472.06;4989179;28;20035;-63
2021/10/09 01:59:32;;;;;;;21.67;10.30;;;;;;;8.28;58.30;101479.19;4989281;28;20036;-63
2021/10/09 02:01:58;;;;;;;25.40;9.73;;;;;;;8.26;58.32;101477.59;4988882;28;20038;-63
2021/10/09 02:04:25;;;;;;;19.55;10.25;;;;;;;8.21;58.09;101475.16;4989278;28;20034;-63
2021/10/09 02:06:50;;;;;;;25.52;10.30;;;;;;;8.19;58.62;101481.53;4989084;28;20026;-63
2021/10/09 02:09:17;;;;;;;20.17;9.27;;;;;;;8.14;58.13;101476.47;4989218;28;20435;-61
2021/10/09 02:11:46;;;;;;;22.95;9.27;;;;;;;8.13;58.20;101477.41;4989357;28;20080;-62
2021/10/09 02:17:07;;;;;;;22.10;9.98;;;;;;;8.08;58.13;101494.66;5008962;28;20025;-62
2021/10/09 02:27:33;;;;;;;;;;;;;;;8.00;57.71;101491.59;5009082;28;20045;-62
2021/10/09 02:29:59;;;;;;;18.88;9.88;;;;;;;8.00;57.78;101486.25;5008327;28;19913;-61
2021/10/09 02:32:24;;;;;;;22.50;9.45;;;;;;;7.96;58.31;101482.88;5008494;28;20538;-62
2021/10/09 02:34:50;;;;;;;21.35;9.00;;;;;;;7.95;57.53;101488.31;4991827;28;20038;-62
2021/10/09 02:37:15;;;;;;;19.90;8.95;;;;;;;7.93;58.01;101479.56;5010112;28;20030;-62
2021/10/09 02:39:41;;;;;;;21.52;9.27;;;;;;;7.93;58.10;101480.38;5008277;28;20030;-62
2021/10/09 02:42:06;;;;;;;18.95;7.97;;;;;;;7.90;57.81;101479.72;5008483;28;20037;-62
2021/10/09 02:44:32;;;;;;;22.85;10.15;;;;;;;7.81;58.43;101467.78;5001552;28;20117;-62
2021/10/09 02:46:57;;;;;;;20.70;9.30;;;;;;;7.87;58.19;101485.25;4988790;28;20072;-62
2021/10/09 02:49:23;;;;;;;20.95;9.90;;;;;;;7.82;58.66;101471.28;4990799;28;20050;-62
2021/10/09 02:51:48;;;;;;;21.95;9.90;;;;;;;7.84;58.81;101474.75;4992609;28;20034;-62
2021/10/09 02:54:14;;;;;;;20.58;8.68;;;;;;;7.81;58.45;101483.81;4992531;28;20037;-62
2021/10/09 02:56:39;;;;;;;20.95;9.82;;;;;;;7.77;58.36;101484.06;4992067;28;20030;-62
2021/10/09 02:59:04;;;;;;;18.75;10.07;;;;;;;7.62;58.58;101463.56;4991982;28;20022;-62
2021/10/09 03:01:30;;;;;;;22.10;9.85;;;;;;;7.70;58.63;101466.69;5001095;28;20590;-62
2021/10/09 03:03:55;;;;;;;17.10;8.88;;;;;;;7.71;58.40;101481.75;5011448;28;20053;-61
2021/10/09 03:06:21;;;;;;;19.50;9.73;;;;;;;7.71;58.57;101481.75;5011629;28;20030;-61
2021/10/09 03:08:46;;;;;;;16.20;8.93;;;;;;;7.61;58.74;101475.22;5011501;28;20029;-61
2021/10/09 03:11:12;;;;;;;20.02;9.00;;;;;;;7.67;59.11;101486.38;5011455;28;20033;-61
2021/10/09 03:13:37;;;;;;;21.65;9.57;;;;;;;7.66;58.71;101500.69;5011532;28;20029;-62
2021/10/09 03:16:03;;;;;;;16.45;8.90;;;;;;;7.64;58.35;101483.88;5011344;28;20029;-62
2021/10/09 03:18:28;;;;;;;21.05;8.82;;;;;;;7.60;58.39;101481.47;5000216;28;20026;-62
2021/10/09 03:20:54;;;;;;;23.17;10.10;;;;;;;7.58;58.33;101484.22;4991706;28;20034;-62
2021/10/09 03:23:19;;;;;;;16.88;9.45;;;;;;;7.58;58.67;101486.06;4991493;28;20535;-61
2021/10/09 03:25:44;;;;;;;23.80;10.32;;;;;;;7.55;58.30;101479.09;4991819;28;20022;-61
2021/10/09 03:28:10;;;;;;;14.18;7.93;;;;;;;7.53;58.40;101485.44;4991572;28;20093;-62
2021/10/09 03:30:35;;;;;;;19.55;8.75;;;;;;;7.41;58.16;101471.00;4991875;28;20034;-62
2021/10/09 03:33:01;;;;;;;20.67;8.60;;;;;;;7.50;58.84;101490.97;4991437;28;20034;-62
2021/10/09 03:35:26;;;;;;;26.90;10.70;;;;;;;7.48;58.65;101490.19;4991503;28;20511;-62
2021/10/09 03:37:52;;;;;;;24.00;9.95;;;;;;;7.46;58.24;101486.75;4991190;28;20030;-62
2021/10/09 03:40:20;;;;;;;19.95;9.27;;;;;;;7.44;58.75;101493.97;4991513;28;20104;-62
2021/10/09 03:42:51;;;;;;;18.85;9.05;;;;;;;7.43;59.29;101495.78;5006786;28;20031;-61
2021/10/09 03:45:30;;;;;;;21.73;9.20;;;;;;;7.34;59.00;101484.75;4992048;28;20372;-62
2021/10/09 03:52:20;;;;;;;26.17;8.75;;;;;;;7.37;59.59;101492.59;4991323;28;20045;-62
2021/10/09 03:53:06;;;;;;;18.10;8.20;;;;;;;7.33;59.69;101489.25;4991169;28;20480;-61
2021/10/09 03:55:35;;;;;;;22.58;8.95;;;;;;;7.26;59.02;101487.88;4991452;28;20034;-61
2021/10/09 03:58:00;;;;;;;23.23;9.55;;;;;;;7.28;59.25;101491.31;4991237;28;20498;-61
2021/10/09 04:00:26;;;;;;;15.88;8.68;;;;;;;7.25;59.77;101490.63;4990091;28;20030;-62
2021/10/09 04:02:51;;;;;;;21.10;9.32;;;;;;;7.19;59.82;101488.31;4990911;28;20061;-62
2021/10/09 04:05:17;;;;;;;21.55;9.07;;;;;;;7.10;59.13;101487.00;4991193;28;20026;-61
2021/10/09 04:07:42;;;;;;;20.73;8.52;;;;;;;7.07;59.24;101494.28;5007771;28;20025;-61
2021/10/09 04:10:09;;;;;;;16.85;8.40;;;;;;;7.09;59.51;101498.59;5010304;28;20022;-61
2021/10/09 04:12:35;;;;;;;20.10;8.50;;;;;;;7.09;59.03;101505.75;5010442;28;20025;-61
2021/10/09 04:15:00;;;;;;;21.10;8.55;;;;;;;7.03;59.45;101515.81;5010303;28;20537;-61
2021/10/09 04:17:26;;;;;;;19.55;7.82;;;;;;;7.02;59.52;101509.72;5010143;28;20029;-61
2021/10/09 04:19:52;;;;;;;19.55;8.50;;;;;;;7.00;59.27;101507.97;5010426;28;20052;-62
2021/10/09 04:22:17;;;;;;;22.73;8.00;;;;;;;7.00;59.26;101509.78;5010375;28;20083;-62
2021/10/09 04:24:43;;;;;;;17.08;7.82;;;;;;;6.97;59.47;101513.47;4997344;28;20507;-61
2021/10/09 04:27:08;;;;;;;18.10;7.95;;;;;;;6.95;59.10;101509.16;4990283;28;20065;-62
2021/10/09 04:29:34;;;;;;;17.38;8.70;;;;;;;6.95;59.56;101514.50;4986885;28;20404;-62
2021/10/09 04:32:00;;;;;;;18.08;7.88;;;;;;;6.87;59.24;101506.91;4986330;28;20060;-61
2021/10/09 04:34:27;;;;;;;20.65;8.38;;;;;;;6.90;59.27;101522.75;4990490;28;20063;-62
2021/10/09 04:36:55;;;;;;;20.67;8.23;;;;;;;6.90;59.29;101524.53;4990165;28;20512;-62
2021/10/09 04:39:24;;;;;;;18.75;7.22;;;;;;;6.88;58.85;101529.09;4990628;28;20033;-62
2021/10/09 04:41:50;;;;;;;17.77;7.95;;;;;;;6.87;59.09;101533.56;4990541;28;20026;-61
2021/10/09 04:44:15;;;;;;;19.33;8.27;;;;;;;6.86;59.62;101525.66;4990054;28;20026;-62
2021/10/09 04:46:41;;;;;;;20.10;9.25;;;;;;;6.84;59.62;101535.56;4989998;28;20026;-61
2021/10/09 04:49:08;;;;;;;15.10;7.68;;;;;;;6.78;59.36;101534.06;4990370;28;20022;-62
2021/10/09 04:51:34;;;;;;;13.80;7.30;;;;;;;6.83;59.43;101550.69;4990255;28;20026;-62
2021/10/09 04:54:00;;;;;;;15.75;8.20;;;;;;;6.81;59.64;101541.06;4990069;28;20120;-61
2021/10/09 04:56:25;;;;;;;21.67;8.52;;;;;;;6.79;59.96;101535.78;4990069;28;20136;-61
2021/10/09 04:58:51;;;;;;;18.70;7.93;;;;;;;6.79;60.08;101534.91;4990062;28;20029;-62
2021/10/09 05:01:16;;;;;;;15.32;8.02;;;;;;;6.80;60.25;101549.97;4989946;28;20034;-62
2021/10/09 05:03:42;;;;;;;14.25;7.30;;;;;;;6.77;59.65;101542.13;4989737;28;20045;-61
2021/10/09 05:06:07;;;;;;;12.50;7.07;;;;;;;6.68;59.56;101532.81;4989931;28;20077;-61
2021/10/09 05:08:32;;;;;;;17.38;7.30;;;;;;;6.74;60.15;101543.16;4989926;28;20034;-62
2021/10/09 05:10:58;;;;;;;19.17;7.53;;;;;;;6.73;60.29;101538.78;4989766;28;20472;-61
2021/10/09 05:13:24;;;;;;;15.90;8.07;;;;;;;6.77;60.29;101543.00;4989727;28;20093;-62
2021/10/09 05:15:50;;;;;;;14.98;7.95;;;;;;;6.78;59.95;101551.88;4989700;28;20026;-62
2021/10/09 05:18:15;;;;;;;21.65;8.68;;;;;;;6.74;59.87;101547.66;4989656;28;20026;-61
2021/10/09 05:20:41;;;;;;;16.67;7.50;;;;;;;6.73;60.26;101552.13;4989856;28;20415;-61
2021/10/09 05:23:06;;;;;;;18.05;8.02;;;;;;;6.73;60.36;101551.25;4989608;28;20089;-61
2021/10/09 05:25:33;;;;;;;15.07;7.22;;;;;;;6.73;60.48;101545.91;4989754;28;20026;-62
2021/10/09 05:28:07;;;;;;;15.95;8.40;;;;;;;6.71;60.70;101553.97;4989281;28;20512;-61
2021/10/09 05:30:34;;;;;;;;;;;;;;;6.70;60.49;101543.41;4989943;28;20057;-61
2021/10/09 05:33:18;;;;;;;16.20;9.32;;;;;;;6.70;60.60;101554.06;4989495;28;20360;-61
2021/10/09 05:35:44;;;;;;;;;;;;;;;6.69;60.31;101555.88;4989983;28;20105;-61
2021/10/09 05:38:09;;;;;;;21.25;7.75;;;;;;;6.64;60.79;101543.72;4989707;28;20016;-61
2021/10/09 05:40:35;;;;;;;18.73;7.28;;;;;;;6.74;61.20;101563.66;4989477;28;20038;-61
2021/10/09 05:43:01;;;;;;;21.05;8.20;;;;;;;6.75;61.04;101566.19;4989299;28;20564;-62
2021/10/09 05:45:26;;;;;;;19.40;8.23;;;;;;;6.75;60.31;101563.53;4999318;28;20049;-62
2021/10/09 05:47:52;;;;;;;13.65;7.53;;;;;;;6.76;60.50;101557.28;5009735;28;20076;-62
2021/10/09 05:50:21;;;;;;;18.48;7.53;;;;;;;6.77;60.51;101558.13;5024402;28;20025;-61
2021/10/09 05:53:07;;;;;;;15.82;8.40;;;;;;;6.82;60.24;101561.44;5008999;28;20026;-61
2021/10/09 05:55:40;;;;;;;19.00;8.10;;;;;;;6.83;60.10;101558.69;4987840;28;20084;-61
2021/10/09 05:58:15;;;;;;;17.55;7.85;;;;;;;6.86;60.17;101573.66;5004262;28;20030;-62
2021/10/09 06:59:42;;;;;;;14.95;6.03;;;;;;;8.44;55.34;101594.09;5012393;28;20057;-62
2021/10/09 07:02:08;;;;;;;12.55;6.88;;;;;;;8.58;54.41;101595.00;5011610;28;20034;-61
2021/10/09 07:04:34;;;;;;;11.32;6.20;;;;;;;8.73;53.67;101595.91;5010755;28;20030;-62
2021/10/09 07:07:03;;;;;;;15.32;6.72;;;;;;;8.85;54.01;101585.34;5012001;28;20030;-62
2021/10/09 07:09:29;;;;;;;19.67;7.20;;;;;;;9.11;52.89;101591.75;5012735;28;20109;-62
2021/10/09 07:11:54;;;;;;;14.65;6.63;;;;;;;9.32;52.39;101585.06;5011556;28;20540;-62
2021/10/09 07:14:20;;;;;;;18.75;6.63;;;;;;;9.57;51.75;101587.09;5011801;28;20626;-62
2021/10/09 07:16:46;;;;;;;14.57;6.07;;;;;;;9.85;51.52;101589.69;5011604;28;20535;-62
2021/10/09 07:19:11;;;;;;;15.93;6.97;;;;;;;10.13;50.74;101587.81;5011965;28;20152;-62
2021/10/09 07:21:37;;;;;;;11.00;6.60;;;;;;;10.52;49.89;101587.00;5010255;28;20029;-62
2021/10/09 07:24:02;;;;;;;12.73;6.63;;;;;;;11.14;48.44;101579.03;5007992;28;20428;-62
2021/10/09 07:26:28;;;;;;;16.42;7.95;;;;;;;11.92;46.32;101591.28;4992236;28;20132;-62
2021/10/09 07:28:53;;;;;;;15.13;8.18;;;;;;;12.58;44.62;101590.81;4991730;28;20504;-62
2021/10/09 07:31:19;;;;;;;16.73;9.57;;;;;;;13.36;43.01;101590.03;4991546;28;20396;-62
2021/10/09 07:33:44;;;;;;;26.15;12.07;;;;;;;14.07;41.34;101576.97;5008097;28;20022;-63
2021/10/09 07:36:10;;;;;;;23.70;10.85;;;;;;;14.85;40.18;101582.94;5011595;28;20030;-63
2021/10/09 07:38:36;;;;;;;10.43;6.28;;;;;;;15.60;38.85;101582.56;5011562;28;20058;-62
2021/10/09 07:41:02;;;;;;;12.45;6.40;;;;;;;16.30;37.84;101578.91;5011476;28;20120;-62
2021/10/09 07:43:28;;;;;;;13.68;6.82;;;;;;;16.95;36.22;101573.66;5011389;28;20037;-63
2021/10/09 07:45:53;;;;;;;13.63;6.28;;;;;;;17.62;35.04;101563.50;5010755;28;20026;-62
2021/10/09 07:48:18;;;;;;;11.88;6.28;;;;;;;18.14;33.75;101573.66;5011021;28;20026;-63
2021/10/09 07:50:44;;;;;;;14.85;6.40;;;;;;;18.59;32.97;101569.06;5011131;28;20104;-63
2021/10/09 07:53:10;;;;;;;13.45;6.35;;;;;;;18.98;32.12;101564.97;5002593;28;20065;-63
2021/10/09 07:55:35;;;;;;;12.60;6.15;;;;;;;19.45;31.73;101558.16;4991621;28;20026;-63
2021/10/09 07:58:01;;;;;;;12.55;6.57;;;;;;;19.92;31.08;101551.25;5006840;28;20443;-63
2021/10/09 08:00:26;;;;;;;12.48;5.75;;;;;;;20.25;30.57;101563.13;5010721;28;20061;-60
2021/10/09 08:02:52;;;;;;;14.27;5.95;;;;;;;20.47;30.34;101562.47;5010740;28;20439;-61
2021/10/09 08:05:20;;;;;;;12.73;5.78;;;;;;;20.61;29.84;101558.25;5009485;28;20497;-61
2021/10/09 08:07:45;;;;;;;11.98;5.50;;;;;;;20.00;30.78;101559.44;5010425;28;20486;-61
2021/10/09 08:10:11;;;;;;;12.68;6.30;;;;;;;19.15;31.86;101565.97;5010608;28;20026;-61
2021/10/09 08:12:37;;;;;;;12.23;6.85;;;;;;;18.26;32.86;101571.56;5010401;28;20042;-61
2021/10/09 08:15:04;;;;;;;13.77;6.85;;;;;;;17.44;34.04;101573.41;5003469;28;20173;-60
2021/10/09 08:17:30;;;;;;;12.55;6.45;;;;;;;16.60;35.30;101576.97;5021482;28;20076;-61
2021/10/09 08:19:55;;;;;;;13.30;6.25;;;;;;;15.92;36.89;101578.84;4990946;28;20057;-61
2021/10/09 08:22:24;;;;;;;10.95;6.60;;;;;;;15.39;37.81;101586.31;4991534;28;20066;-60
2021/10/09 08:25:21;;;;;;;16.67;7.15;;;;;;;15.04;38.53;101578.56;5010058;28;20061;-61
2021/10/09 08:35:39;;;;;;;12.98;6.50;;;;;;;13.61;42.10;101600.59;5010351;28;20506;-64
2021/10/09 08:40:49;;;;;;;16.02;6.22;;;;;;;13.35;42.80;101596.41;5010062;28;20040;-63
2021/10/09 08:43:14;;;;;;;11.02;6.03;;;;;;;13.27;44.17;101585.38;5010191;28;20033;-63
2021/10/09 08:45:40;;;;;;;10.73;6.05;;;;;;;13.34;43.96;101598.25;5009954;28;20030;-64
2021/10/09 08:48:05;;;;;;;13.68;6.13;;;;;;;13.47;43.46;101598.97;5009712;28;20460;-63
2021/10/09 08:50:31;;;;;;;14.85;6.07;;;;;;;13.66;43.73;101583.06;4990801;28;20120;-63
2021/10/09 08:53:11;;;;;;;12.90;5.93;;;;;;;14.85;40.99;101581.13;4988594;28;20070;-63
2021/10/09 08:55:43;;;;;;;12.13;5.90;;;;;;;16.88;37.82;101581.53;4990234;28;20022;-64
2021/10/09 08:58:27;;;;;;;12.82;6.18;;;;;;;19.09;34.39;101580.19;4989902;28;20443;-64
2021/10/09 09:01:05;;;;;;;19.52;6.20;;;;;;;20.85;31.11;101552.78;4990018;28;20034;-64
2021/10/09 09:04:34;;;;;;;10.68;5.47;;;;;;;22.77;28.61;101554.81;4989990;28;20033;-64
2021/10/09 09:09:31;;;;;;;8.63;5.47;;;;;;;25.58;24.48;101542.69;4989761;28;20472;-64
2021/10/09 09:26:24;;;;;;;12.75;6.43;;;;;;;29.05;20.55;101522.91;5004773;28;20530;-62
2021/10/09 09:40:16;;;;;;;13.98;6.50;;;;;;;29.93;19.50;101519.63;5009004;28;20072;-63
2021/10/09 09:42:44;;;;;;;16.83;5.70;;;;;;;30.04;19.46;101505.00;5008826;28;20034;-63
2021/10/09 09:45:10;;;;;;;13.82;5.22;;;;;;;29.99;19.53;101511.22;5008873;28;20042;-63
2021/10/09 09:47:41;;;;;;;20.63;5.45;;;;;;;30.08;19.32;101514.53;5009534;28;20508;-63
2021/10/09 09:50:09;;;;;;;15.48;6.10;;;;;;;30.02;19.85;101515.47;5009608;28;20026;-63
2021/10/09 09:52:37;;;;;;;10.77;5.70;;;;;;;30.24;19.24;101519.47;5009315;28;20103;-63
2021/10/09 09:55:04;;;;;;;14.85;5.60;;;;;;;30.19;19.07;101513.78;5008964;28;20030;-63
2021/10/09 09:57:30;;;;;;;12.25;5.63;;;;;;;29.93;19.08;101505.78;5009369;28;20531;-64
2021/10/09 09:59:57;;;;;;;11.70;5.43;;;;;;;29.30;19.58;101507.16;5012717;28;20022;-63
2021/10/09 10:02:26;;;;;;;13.80;5.88;;;;;;;28.55;20.28;101505.41;5013826;28;20041;-64
2021/10/09 10:04:52;;;;;;;11.60;5.10;;;;;;;27.34;21.59;101519.22;5013903;28;20033;-63
2021/10/09 10:07:18;;;;;;;9.90;6.18;;;;;;;26.18;22.48;101524.38;5012785;28;20028;-63
2021/10/09 10:09:44;;;;;;;14.02;5.45;;;;;;;24.89;23.95;101530.72;5012654;28;20030;-63
2021/10/09 10:12:09;;;;;;;11.70;4.88;;;;;;;23.61;25.59;101533.47;5012659;28;20040;-64
2021/10/09 10:14:35;;;;;;;11.68;6.25;;;;;;;22.63;26.99;101536.44;5012862;28;20081;-63
2021/10/09 10:17:01;;;;;;;14.68;5.32;;;;;;;21.63;28.01;101535.59;5012261;28;20022;-63
2021/10/09 10:19:49;;;;;;;12.63;5.57;;;;;;;20.68;29.09;101542.91;5007731;28;20038;-63
2021/10/09 10:22:16;;;;;;;9.60;5.60;;;;;;;20.06;30.00;101539.72;4986294;28;20540;-65
2021/10/09 10:24:47;;;;;;;17.55;5.60;;;;;;;19.44;30.83;101542.03;4997790;28;20555;-65
2021/10/09 10:27:55;;;;;;;15.18;5.30;;;;;;;18.69;31.45;101541.78;5027320;28;20080;-65
2021/10/09 10:30:22;;;;;;;13.38;5.65;;;;;;;18.31;32.28;101544.81;4970599;28;20173;-64
2021/10/09 10:32:55;;;;;;;9.70;5.53;;;;;;;17.95;32.13;101549.31;4979379;28;20515;-65
2021/10/09 10:35:30;;;;;;;14.98;5.40;;;;;;;17.54;33.42;101547.13;5012247;28;20435;-65
2021/10/09 10:38:04;;;;;;;10.82;4.60;;;;;;;17.32;34.25;101552.88;4995951;28;20034;-65
2021/10/09 10:40:46;;;;;;;;;;;;;;;16.98;35.01;101546.25;4992998;28;20034;-64
2021/10/09 10:43:29;;;;;;;14.32;5.82;;;;;;;16.86;34.79;101550.16;5007437;28;19945;-63
2021/10/09 10:45:55;;;;;;;15.70;5.80;;;;;;;16.56;34.59;101540.34;4990199;28;20076;-63
2021/10/09 10:48:42;;;;;;;8.73;5.32;;;;;;;16.39;34.68;101542.88;4992307;28;20030;-64
2021/10/09 10:51:16;;;;;;;15.35;5.45;;;;;;;16.23;36.01;101546.13;4992776;28;20030;-64
2021/10/09 10:53:58;;;;;;;10.77;5.55;;;;;;;16.06;37.02;101552.25;4992427;28;20468;-63
2021/10/09 10:56:24;;;;;;;14.07;5.38;;;;;;;15.77;37.14;101519.69;4992154;28;20473;-64
2021/10/09 10:58:49;;;;;;;17.90;6.15;;;;;;;15.86;36.81;101554.03;4992105;28;20030;-64
2021/10/09 11:01:25;;;;;;;13.77;6.15;;;;;;;15.75;37.51;101553.28;4992172;28;20512;-63
2021/10/09 11:03:53;;;;;;;10.52;6.32;;;;;;;15.65;38.06;101555.13;5010552;28;20360;-63
2021/10/09 11:06:21;;;;;;;17.73;6.57;;;;;;;15.56;38.44;101555.94;5010788;28;20033;-63
2021/10/09 11:08:49;;;;;;;15.27;6.22;;;;;;;15.47;38.75;101563.00;5011588;28;20471;-63
2021/10/09 11:11:15;;;;;;;15.15;6.65;;;;;;;15.38;39.33;101553.00;5011142;28;20039;-64
2021/10/09 11:13:42;;;;;;;14.02;6.45;;;;;;;15.23;39.98;101537.25;5011872;28;20029;-64
2021/10/09 11:16:08;;;;;;;16.95;6.60;;;;;;;15.23;40.36;101540.81;5011563;28;20403;-63
2021/10/09 11:18:53;;;;;;;12.65;6.22;;;;;;;15.16;40.56;101542.31;5011454;28;20038;-64
2021/10/09 11:21:21;;;;;;;11.88;6.18;;;;;;;15.06;40.67;101527.06;5011029;28;20069;-65
2021/10/09 11:23:52;;;;;;;13.80;5.82;;;;;;;15.10;40.82;101540.19;5011381;28;20025;-65
2021/10/09 11:26:18;;;;;;;13.75;6.20;;;;;;;15.09;41.17;101543.03;5011007;28;20041;-65
2021/10/09 11:28:44;;;;;;;15.95;6.57;;;;;;;15.06;41.35;101541.41;5011124;28;20457;-65
2021/10/09 11:31:21;;;;;;;10.75;6.25;;;;;;;15.05;41.33;101534.31;5026651;28;20404;-64
2021/10/09 11:33:52;;;;;;;17.17;6.38;;;;;;;15.06;41.24;101537.88;5011141;28;20041;-65
2021/10/09 11:36:18;;;;;;;14.05;5.97;;;;;;;15.01;40.24;101522.06;5010957;28;20029;-64
2021/10/09 11:38:43;;;;;;;12.23;6.18;;;;;;;15.03;40.41;101530.88;5010870;28;20112;-65
2021/10/09 11:41:17;;;;;;;11.80;5.68;;;;;;;14.97;39.91;101531.44;5009629;28;20033;-64
2021/10/09 11:47:16;;;;;;;17.83;6.40;;;;;;;14.99;39.73;101528.59;5011209;28;20045;-65
2021/10/09 11:55:22;;;;;;;14.82;5.70;;;;;;;14.96;39.19;101521.59;5011308;28;20545;-64
2021/10/09 11:57:49;;;;;;;16.85;5.53;;;;;;;14.95;39.39;101521.72;5011003;28;20061;-65
2021/10/09 12:00:31;;;;;;;12.98;6.30;;;;;;;14.89;39.17;101523.13;5026331;28;20472;-64
2021/10/09 12:03:26;;;;;;;17.50;6.25;;;;;;;14.88;38.97;101515.16;5010925;28;20040;-65
2021/10/09 12:05:55;;;;;;;15.63;7.35;;;;;;;14.86;38.76;101515.28;5005639;28;20491;-65
2021/10/09 12:08:27;;;;;;;16.15;6.20;;;;;;;14.84;39.62;101513.72;5010634;28;20024;-65
2021/10/09 12:11:26;;;;;;;16.23;6.18;;;;;;;14.87;39.31;101513.44;5011274;28;20033;-64
2021/10/09 12:14:05;;;;;;;14.38;6.07;;;;;;;14.89;39.39;101512.31;5010731;28;20431;-64
2021/10/09 12:16:56;;;;;;;12.40;5.60;;;;;;;14.90;39.73;101507.78;5009668;28;20060;-64
2021/10/09 12:19:27;;;;;;;12.82;5.65;;;;;;;14.89;39.23;101500.66;5008845;28;20050;-63
2021/10/09 12:21:53;;;;;;;9.75;5.00;;;;;;;15.00;38.75;101498.72;5009199;28;20029;-64
2021/10/09 12:24:30;;;;;;;11.68;5.45;;;;;;;14.94;38.31;101488.47;5010318;28;20025;-64
2021/10/09 12:27:16;;;;;;;9.30;5.40;;;;;;;15.08;38.06;101493.50;5009688;28;20038;-65
2021/10/09 12:30:03;;;;;;;19.48;6.20;;;;;;;15.15;38.46;101486.56;5010295;28;20574;-64
2021/10/09 12:32:30;;;;;;;11.95;4.90;;;;;;;15.22;38.31;101484.19;4988517;28;20133;-65
2021/10/09 12:35:02;;;;;;;10.98;4.90;;;;;;;15.30;38.25;101479.81;4990370;28;20476;-65
2021/10/09 12:37:28;;;;;;;20.23;5.72;;;;;;;15.37;37.96;101483.72;4990314;28;20031;-65
2021/10/09 12:40:09;;;;;;;12.00;5.45;;;;;;;15.43;37.70;101482.31;4990473;28;20041;-65
2021/10/09 12:42:35;;;;;;;11.05;4.78;;;;;;;15.47;37.03;101481.03;4990269;28;20129;-64
2021/10/09 12:45:04;;;;;;;13.75;5.03;;;;;;;15.49;36.54;101473.66;4990112;28;20109;-64
2021/10/09 12:47:30;;;;;;;12.75;4.60;;;;;;;15.53;36.60;101472.38;4991005;28;20361;-65
2021/10/09 12:49:56;;;;;;;15.02;5.22;;;;;;;15.54;36.52;101471.38;4990439;28;20030;-65
2021/10/09 12:52:21;;;;;;;11.48;4.90;;;;;;;15.55;36.46;101470.41;4990612;28;20022;-65
2021/10/09 12:54:47;;;;;;;12.02;5.10;;;;;;;15.51;36.10;101460.84;4990480;28;20029;-65
2021/10/09 12:57:12;;;;;;;14.32;5.43;;;;;;;15.55;36.02;101460.41;4990573;28;20075;-65
2021/10/09 12:59:38;;;;;;;12.07;4.50;;;;;;;15.58;36.64;101462.00;4990432;28;20085;-65
2021/10/09 13:02:04;;;;;;;6.75;4.03;;;;;;;15.60;36.98;101468.13;4990622;28;20511;-65
2021/10/09 13:04:29;;;;;;;8.60;4.43;;;;;;;15.57;37.46;101453.03;4996458;28;20034;-65
2021/10/09 13:06:55;;;;;;;12.55;5.00;;;;;;;15.64;37.75;101462.28;5009863;28;20037;-64
2021/10/09 13:09:20;;;;;;;7.55;4.43;;;;;;;15.65;37.24;101455.91;5008868;28;20109;-65
2021/10/09 13:11:55;;;;;;;11.70;4.30;;;;;;;15.61;37.49;101449.03;5009993;28;20049;-65
2021/10/09 13:14:21;;;;;;;8.73;4.28;;;;;;;15.68;36.25;101460.19;5010359;28;20022;-65
2021/10/09 13:16:47;;;;;;;10.73;4.22;;;;;;;15.67;36.09;101456.59;5009596;28;20026;-64
2021/10/09 13:19:13;;;;;;;17.00;4.97;;;;;;;15.67;36.42;101453.91;5009765;28;20026;-65
2021/10/09 13:21:39;;;;;;;12.00;4.50;;;;;;;15.67;36.54;101455.75;4995659;28;20124;-65
2021/10/09 13:24:04;;;;;;;10.65;4.75;;;;;;;15.69;36.00;101451.06;4989858;28;20026;-65
2021/10/09 13:26:31;;;;;;;10.02;4.90;;;;;;;15.60;36.13;101441.94;4995471;28;20042;-65
2021/10/09 13:28:57;;;;;;;14.10;5.22;;;;;;;15.65;36.20;101455.91;5009046;28;20041;-65